Time;durP1;ratioP1;P1;durP2;ratioP2;P2;SDS_P1;SDS_P2;PMS_P1;PMS_P2;Temp;Humidity;BMP_temperature;BMP_pressure;BME280_temperature;BME280_humidity;BME280_pressure;Samples;Min_cycle;Max_cycle;Signal;HPM_P1;HPM_P2
2021/11/28 00:00:05;;;;;;;1.00;0.63;;;;;;;0.72;97.10;98509.53;5071340;28;20472;-79
2021/11/28 00:02:34;;;;;;;0.57;0.57;;;;;;;0.73;96.80;98521.91;5071093;28;20413;-79
2021/11/28 00:05:00;;;;;;;0.00;0.00;;;;;;;0.71;96.48;98505.25;5070838;28;20459;-78
2021/11/28 00:10:06;;;;;;;0.10;0.07;;;;;;;0.67;96.88;98513.09;5071047;28;20182;-78
2021/11/28 00:12:40;;;;;;;0.20;0.20;;;;;;;0.63;96.59;98517.47;5070880;28;20206;-79
2021/11/28 00:15:09;;;;;;;0.73;0.40;;;;;;;0.60;96.76;98512.69;5070764;28;20489;-78
2021/11/28 00:17:35;;;;;;;0.47;0.40;;;;;;;0.58;97.54;98507.63;5069575;28;20767;-78
2021/11/28 00:20:02;;;;;;;0.10;0.10;;;;;;;0.55;97.23;98513.56;5067637;28;20243;-78
2021/11/28 00:22:28;;;;;;;0.43;0.43;;;;;;;0.49;97.70;98495.94;5070567;28;20182;-78
2021/11/28 00:24:53;;;;;;;0.30;0.30;;;;;;;0.50;97.86;98505.59;5070467;28;20989;-78
2021/11/28 00:27:19;;;;;;;2.90;0.83;;;;;;;0.50;97.69;98505.59;5070045;28;20413;-78
2021/11/28 00:29:44;;;;;;;0.57;0.57;;;;;;;0.50;97.97;98504.78;5070908;28;20177;-79
2021/11/28 00:32:10;;;;;;;0.27;0.23;;;;;;;0.50;98.10;98502.09;5070444;28;20194;-78
2021/11/28 00:34:35;;;;;;;0.10;0.03;;;;;;;0.49;98.29;98508.56;5070681;28;20216;-77
2021/11/28 00:37:01;;;;;;;0.43;0.43;;;;;;;0.45;98.17;98511.06;5070659;28;20533;-79
2021/11/28 00:39:26;;;;;;;0.87;0.87;;;;;;;0.43;98.01;98507.84;5070752;28;20257;-78
2021/11/28 00:41:51;;;;;;;0.73;0.60;;;;;;;0.42;97.95;98516.19;5070854;28;20253;-78
2021/11/28 00:44:17;;;;;;;0.50;0.50;;;;;;;0.39;98.67;98503.34;5071000;28;20180;-78
2021/11/28 00:46:42;;;;;;;0.23;0.23;;;;;;;0.39;98.81;98508.72;5069342;28;20214;-78
2021/11/28 00:49:14;;;;;;;1.37;1.13;;;;;;;0.37;98.62;98498.28;5070671;28;20254;-78
2021/11/28 00:51:56;;;;;;;0.00;0.00;;;;;;;0.37;99.23;98500.16;5070854;28;20178;-78
2021/11/28 00:54:24;;;;;;;0.40;0.40;;;;;;;0.32;98.79;98497.56;5070636;28;20413;-79
2021/11/28 00:56:49;;;;;;;0.23;0.23;;;;;;;0.36;99.21;98503.94;5068939;28;20432;-78
2021/11/28 00:59:16;;;;;;;0.20;0.20;;;;;;;0.32;99.25;98498.34;5070558;28;20807;-78
2021/11/28 01:01:42;;;;;;;0.10;0.10;;;;;;;0.32;99.43;98511.78;5070446;28;20588;-78
2021/11/28 01:04:07;;;;;;;0.63;0.23;;;;;;;0.28;99.50;98516.91;5070479;28;20417;-78
2021/11/28 01:06:33;;;;;;;0.43;0.43;;;;;;;0.26;99.58;98508.34;5070467;28;20416;-78
2021/11/28 01:08:59;;;;;;;0.50;0.50;;;;;;;0.31;99.90;98514.75;5070394;28;20235;-78
2021/11/28 01:11:25;;;;;;;0.00;0.00;;;;;;;0.27;99.60;98515.31;5070478;28;20174;-78
2021/11/28 01:13:51;;;;;;;0.43;0.30;;;;;;;0.30;99.51;98513.97;5070565;28;20466;-78
2021/11/28 01:16:19;;;;;;;0.50;0.50;;;;;;;0.37;99.46;98524.31;5070294;28;20171;-79
2021/11/28 01:18:44;;;;;;;1.37;1.27;;;;;;;0.34;99.80;98520.34;5070510;28;20409;-78
2021/11/28 01:21:10;;;;;;;0.93;0.93;;;;;;;0.39;99.37;98530.19;5070302;28;20424;-78
2021/11/28 01:23:35;;;;;;;1.50;1.17;;;;;;;0.39;99.67;98540.94;5070316;28;20197;-78
2021/11/28 01:26:00;;;;;;;0.63;0.50;;;;;;;0.34;99.66;98536.47;5070300;28;20178;-79
2021/11/28 01:28:26;;;;;;;0.40;0.40;;;;;;;0.38;99.76;98542.84;5070486;28;20261;-77
2021/11/28 01:30:52;;;;;;;0.20;0.20;;;;;;;0.33;99.82;98542.13;5070125;28;20202;-78
2021/11/28 01:33:17;;;;;;;1.30;0.20;;;;;;;0.34;99.90;98546.41;5070192;28;20653;-78
2021/11/28 01:35:42;;;;;;;0.37;0.37;;;;;;;0.33;99.73;98548.28;5070354;28;20174;-78
2021/11/28 01:38:08;;;;;;;0.20;0.20;;;;;;;0.32;99.63;98553.97;5072967;28;20174;-78
2021/11/28 01:40:34;;;;;;;1.40;1.40;;;;;;;0.32;100.00;98553.97;5074144;28;20185;-79
2021/11/28 01:43:03;;;;;;;1.73;1.63;;;;;;;0.31;100.00;98545.09;5073856;28;20587;-79
2021/11/28 01:45:30;;;;;;;0.03;0.03;;;;;;;0.28;99.81;98551.03;5073732;28;20648;-77
2021/11/28 01:47:58;;;;;;;0.30;0.30;;;;;;;0.28;100.00;98545.66;5073660;28;20482;-78
2021/11/28 01:50:26;;;;;;;2.37;0.77;;;;;;;0.27;100.00;98550.22;5073198;28;20416;-77
2021/11/28 01:52:52;;;;;;;0.27;0.20;;;;;;;0.24;100.00;98547.34;5071640;28;20464;-79
2021/11/28 01:55:22;;;;;;;0.17;0.17;;;;;;;0.21;100.00;98558.66;5073678;28;20759;-79
2021/11/28 01:57:49;;;;;;;0.67;0.67;;;;;;;0.21;100.00;98555.97;5073794;28;20178;-78
2021/11/28 02:00:21;;;;;;;0.03;0.03;;;;;;;0.19;100.00;98553.59;5072339;28;20820;-79
2021/11/28 02:02:47;;;;;;;0.00;0.00;;;;;;;0.14;100.00;98560.91;5073830;28;20520;-78
2021/11/28 02:05:15;;;;;;;0.67;0.67;;;;;;;0.14;100.00;98560.91;5073686;28;20417;-78
2021/11/28 02:07:41;;;;;;;1.20;1.20;;;;;;;0.18;100.00;98559.25;5073789;28;20417;-78
2021/11/28 02:10:07;;;;;;;1.20;1.13;;;;;;;0.20;100.00;98563.25;5073697;28;20421;-78
2021/11/28 02:12:32;;;;;;;0.23;0.10;;;;;;;0.21;100.00;98570.19;5073344;28;20468;-78
2021/11/28 02:14:59;;;;;;;0.00;0.00;;;;;;;0.25;100.00;98551.63;5072412;28;20437;-79
2021/11/28 02:17:26;;;;;;;0.20;0.20;;;;;;;0.29;100.00;98571.44;5078729;28;20231;-79
2021/11/28 02:19:51;;;;;;;0.10;0.10;;;;;;;0.29;100.00;98564.19;5081000;28;20433;-78
2021/11/28 02:22:17;;;;;;;0.10;0.10;;;;;;;0.35;100.00;98562.22;5078164;28;20516;-79
2021/11/28 02:24:43;;;;;;;0.83;0.30;;;;;;;0.37;100.00;98559.25;5072598;28;20278;-78
2021/11/28 02:27:08;;;;;;;1.20;0.77;;;;;;;0.36;100.00;98553.06;5072963;28;20508;-79
2021/11/28 02:29:38;;;;;;;0.50;0.50;;;;;;;0.38;100.00;98550.09;5073050;28;20225;-79
2021/11/28 02:32:04;;;;;;;0.57;0.47;;;;;;;0.35;100.00;98551.47;5072893;28;20190;-79
2021/11/28 02:34:29;;;;;;;0.50;0.50;;;;;;;0.33;100.00;98548.28;5072816;28;20470;-79
2021/11/28 02:36:54;;;;;;;0.40;0.40;;;;;;;0.33;100.00;98550.97;5072860;28;20614;-78
2021/11/28 02:39:20;;;;;;;0.73;0.63;;;;;;;0.36;100.00;98550.38;5072945;28;20175;-79
2021/11/28 02:41:47;;;;;;;0.23;0.23;;;;;;;0.34;100.00;98551.78;5073093;28;20210;-79
2021/11/28 02:44:13;;;;;;;0.40;0.40;;;;;;;0.34;100.00;98549.88;5072767;28;20480;-78
2021/11/28 02:46:39;;;;;;;0.27;0.27;;;;;;;0.35;100.00;98556.06;5072502;28;20421;-79
2021/11/28 02:49:04;;;;;;;0.53;0.53;;;;;;;0.37;100.00;98553.88;5071751;28;20409;-79
2021/11/28 02:51:33;;;;;;;0.00;0.00;;;;;;;0.38;100.00;98548.22;5072441;28;20175;-79
2021/11/28 02:53:59;;;;;;;0.67;0.53;;;;;;;0.41;100.00;98555.69;5072538;28;20171;-79
2021/11/28 02:56:24;;;;;;;0.77;0.77;;;;;;;0.43;100.00;98550.00;5072293;28;20820;-79
2021/11/28 02:58:49;;;;;;;0.73;0.50;;;;;;;0.46;100.00;98554.81;5071180;28;20272;-79
2021/11/28 03:01:18;;;;;;;1.13;0.67;;;;;;;0.49;100.00;98554.22;5072770;28;20181;-79
2021/11/28 03:03:45;;;;;;;0.00;0.00;;;;;;;0.55;100.00;98553.06;5072688;28;20181;-79
2021/11/28 03:06:11;;;;;;;0.90;0.53;;;;;;;0.62;100.00;98560.75;5072113;28;20444;-79
2021/11/28 03:08:37;;;;;;;1.03;1.00;;;;;;;0.63;100.00;98555.09;5072175;28;20424;-78
2021/11/28 03:11:03;;;;;;;0.33;0.33;;;;;;;0.64;100.00;98558.56;5072249;28;20208;-78
2021/11/28 03:13:36;;;;;;;0.57;0.57;;;;;;;0.68;100.00;98555.00;5072011;28;20457;-79
2021/11/28 03:16:05;;;;;;;1.03;0.90;;;;;;;0.73;100.00;98557.63;5072026;28;20931;-79
2021/11/28 03:18:32;;;;;;;1.20;0.67;;;;;;;0.75;100.00;98557.34;5071886;28;20928;-78
2021/11/28 03:21:01;;;;;;;1.10;1.00;;;;;;;0.78;99.93;98564.81;5072236;28;20817;-78
2021/11/28 03:23:30;;;;;;;0.60;0.60;;;;;;;0.77;100.00;98558.63;5071952;28;20429;-78
2021/11/28 03:26:12;;;;;;;0.50;0.50;;;;;;;0.77;100.00;98555.94;5071492;28;20425;-78
2021/11/28 03:28:46;;;;;;;1.97;1.83;;;;;;;0.77;100.00;98563.22;5071736;28;20198;-79
2021/11/28 03:31:11;;;;;;;2.07;1.10;;;;;;;0.78;100.00;98570.97;5070031;28;20421;-79
2021/11/28 03:33:38;;;;;;;2.23;1.27;;;;;;;0.80;100.00;98568.00;5071602;28;20468;-79
2021/11/28 03:36:06;;;;;;;1.43;1.33;;;;;;;0.87;100.00;98571.91;5071466;28;20182;-78
2021/11/28 03:38:31;;;;;;;2.93;1.30;;;;;;;0.90;100.00;98567.84;5071739;28;20857;-79
2021/11/28 03:40:57;;;;;;;1.50;1.03;;;;;;;0.99;100.00;98576.00;5071614;28;20267;-79
2021/11/28 03:43:22;;;;;;;2.13;1.50;;;;;;;1.05;99.98;98567.56;5071251;28;20630;-79
2021/11/28 03:45:48;;;;;;;1.47;1.30;;;;;;;1.08;99.92;98564.28;5071382;28;20198;-79
2021/11/28 03:48:13;;;;;;;1.63;1.30;;;;;;;1.14;99.74;98567.69;5071400;28;20185;-79
2021/11/28 03:50:39;;;;;;;1.43;1.00;;;;;;;1.16;99.90;98566.31;5071403;28;20228;-79
2021/11/28 03:53:04;;;;;;;5.10;1.23;;;;;;;1.12;99.54;98565.28;5071162;28;20620;-79
2021/11/28 03:55:30;;;;;;;1.13;0.67;;;;;;;1.03;99.93;98569.78;5071100;28;20653;-79
2021/11/28 03:57:55;;;;;;;1.20;1.10;;;;;;;0.97;100.00;98568.25;5070212;28;20185;-79
2021/11/28 04:00:21;;;;;;;1.23;1.00;;;;;;;0.94;100.00;98560.78;5071106;28;20174;-79
2021/11/28 04:02:47;;;;;;;0.60;0.40;;;;;;;0.94;100.00;98565.34;5071157;28;20185;-79
2021/11/28 04:05:12;;;;;;;3.67;0.90;;;;;;;0.89;100.00;98566.25;5071038;28;20170;-79
2021/11/28 04:07:38;;;;;;;1.40;1.30;;;;;;;0.89;100.00;98555.50;5071173;28;20653;-79
2021/11/28 04:10:06;;;;;;;1.10;1.00;;;;;;;0.85;100.00;98560.63;5070938;28;20611;-78
2021/11/28 04:12:31;;;;;;;2.47;1.43;;;;;;;0.79;100.00;98561.03;5070877;28;20197;-79
2021/11/28 04:14:57;;;;;;;5.00;1.73;;;;;;;0.69;100.00;98563.84;5071155;28;20896;-79
2021/11/28 04:17:24;;;;;;;2.83;1.97;;;;;;;0.54;100.00;98556.84;5071233;28;20162;-79
2021/11/28 04:19:51;;;;;;;2.30;1.70;;;;;;;0.54;100.00;98563.00;5070951;28;20217;-79
2021/11/28 04:22:17;;;;;;;1.97;1.87;;;;;;;0.74;100.00;98563.81;5071215;28;20174;-79
2021/11/28 04:24:43;;;;;;;1.87;1.30;;;;;;;0.91;100.00;98568.63;5070737;28;20166;-79
2021/11/28 04:27:08;;;;;;;2.23;1.37;;;;;;;0.93;100.00;98564.56;5071084;28;20541;-78
2021/11/28 04:29:33;;;;;;;1.33;1.10;;;;;;;0.86;100.00;98556.06;5070894;28;20606;-79
2021/11/28 04:31:59;;;;;;;2.73;1.33;;;;;;;0.89;100.00;98558.97;5070553;28;20300;-78
2021/11/28 04:34:24;;;;;;;0.97;0.83;;;;;;;0.79;100.00;98552.97;5070693;28;20175;-78
2021/11/28 04:36:50;;;;;;;0.77;0.77;;;;;;;0.57;100.00;98550.88;5070647;28;20166;-79
2021/11/28 04:39:15;;;;;;;0.60;0.60;;;;;;;0.41;100.00;98550.31;5070767;28;20181;-79
2021/11/28 04:41:41;;;;;;;1.97;0.77;;;;;;;0.31;100.00;98550.47;5070697;28;20232;-78
2021/11/28 04:44:06;;;;;;;15.73;0.77;;;;;;;0.25;100.00;98552.41;5070689;28;20171;-79
2021/11/28 04:46:32;;;;;;;0.50;0.50;;;;;;;0.25;100.00;98551.63;5070575;28;20626;-79
2021/11/28 04:48:57;;;;;;;0.00;0.00;;;;;;;0.26;100.00;98542.47;5070888;28;20166;-78
2021/11/28 04:51:22;;;;;;;0.17;0.17;;;;;;;0.25;100.00;98540.88;5070701;28;20178;-78
2021/11/28 04:53:48;;;;;;;24.17;2.37;;;;;;;0.28;100.00;98543.78;5070204;28;20225;-78
2021/11/28 04:56:13;;;;;;;0.33;0.20;;;;;;;0.32;100.00;98545.91;5070299;28;20537;-78
2021/11/28 04:58:39;;;;;;;0.20;0.20;;;;;;;0.38;100.00;98545.53;5069193;28;20186;-78
2021/11/28 05:01:04;;;;;;;0.23;0.23;;;;;;;0.45;100.00;98554.03;5070525;28;20179;-78
2021/11/28 05:03:29;;;;;;;8.10;4.03;;;;;;;0.46;100.00;98557.50;5070418;28;20637;-78
2021/11/28 05:05:55;;;;;;;0.60;0.60;;;;;;;0.43;100.00;98555.38;5070320;28;20261;-78
2021/11/28 05:08:20;;;;;;;0.85;0.82;;;;;;;0.39;100.00;98557.84;5069855;28;20443;-78
2021/11/28 05:10:45;;;;;;;0.63;0.47;;;;;;;0.40;100.00;98564.03;5070494;28;20174;-78
2021/11/28 05:13:11;;;;;;;0.43;0.43;;;;;;;0.42;100.00;98564.53;5072854;28;20201;-78
2021/11/28 05:15:36;;;;;;;0.57;0.57;;;;;;;0.44;100.00;98568.53;5074111;28;20187;-79
2021/11/28 05:18:02;;;;;;;0.50;0.50;;;;;;;0.42;100.00;98570.69;5074686;28;20170;-78
2021/11/28 05:20:27;;;;;;;0.67;0.67;;;;;;;0.40;100.00;98575.56;5072923;28;20179;-79
2021/11/28 05:22:52;;;;;;;0.50;0.43;;;;;;;0.34;100.00;98574.06;5074251;28;20186;-78
2021/11/28 05:25:18;;;;;;;0.60;0.60;;;;;;;0.32;100.00;98580.81;5072580;28;20443;-78
2021/11/28 05:27:47;;;;;;;1.27;1.17;;;;;;;0.31;100.00;98579.22;5074046;28;20181;-78
2021/11/28 05:30:14;;;;;;;1.10;0.93;;;;;;;0.32;100.00;98588.88;5072838;28;20179;-79
2021/11/28 05:32:39;;;;;;;2.63;1.60;;;;;;;0.29;100.00;98577.63;5072388;28;20495;-79
2021/11/28 05:35:06;;;;;;;1.37;0.93;;;;;;;0.28;100.00;98594.00;5073736;28;20444;-79
2021/11/28 05:37:31;;;;;;;5.20;1.93;;;;;;;0.26;100.00;98604.22;5073859;28;20178;-78
2021/11/28 05:39:57;;;;;;;1.30;1.20;;;;;;;0.20;100.00;98602.72;5073764;28;20416;-79
2021/11/28 05:42:23;;;;;;;1.00;0.93;;;;;;;0.15;100.00;98608.97;5073805;28;20501;-78
2021/11/28 05:44:48;;;;;;;1.67;1.07;;;;;;;0.13;100.00;98607.63;5073658;28;20179;-78
2021/11/28 05:47:14;;;;;;;9.07;0.90;;;;;;;0.13;100.00;98603.06;5073579;28;20206;-79
2021/11/28 05:49:39;;;;;;;1.40;1.30;;;;;;;0.09;100.00;98595.88;5073380;28;20626;-78
2021/11/28 05:52:05;;;;;;;1.33;1.23;;;;;;;0.02;100.00;98598.13;5073439;28;20763;-77
2021/11/28 05:54:30;;;;;;;0.50;0.50;;;;;;;-0.04;100.00;98592.81;5073279;28;20658;-79
2021/11/28 05:56:56;;;;;;;0.10;0.10;;;;;;;-0.08;100.00;98591.78;5073525;28;20182;-78
2021/11/28 05:59:21;;;;;;;2.57;2.10;;;;;;;-0.11;100.00;98596.94;5073558;28;20509;-78
2021/11/28 06:01:47;;;;;;;0.40;0.30;;;;;;;-0.13;100.00;98593.75;5073400;28;20178;-78
2021/11/28 06:04:12;;;;;;;1.27;1.03;;;;;;;-0.13;100.00;98599.91;5073398;28;20236;-78
2021/11/28 06:06:37;;;;;;;1.90;1.53;;;;;;;-0.11;100.00;98594.25;5073166;28;20789;-79
2021/11/28 06:09:03;;;;;;;2.23;2.13;;;;;;;-0.14;100.00;98595.63;5073420;28;20557;-79
2021/11/28 06:11:28;;;;;;;0.20;0.20;;;;;;;-0.12;100.00;98606.06;5073510;28;20186;-79
2021/11/28 06:13:54;;;;;;;2.13;1.93;;;;;;;-0.11;100.00;98608.47;5073176;28;20221;-79
2021/11/28 06:16:19;;;;;;;2.53;2.33;;;;;;;-0.12;100.00;98601.50;5072925;28;20174;-77
2021/11/28 06:18:45;;;;;;;0.57;0.57;;;;;;;-0.11;100.00;98610.34;5073266;28;20265;-79
2021/11/28 06:21:10;;;;;;;2.03;1.93;;;;;;;-0.11;100.00;98607.66;5072633;28;20538;-78
2021/11/28 06:23:36;;;;;;;1.37;0.97;;;;;;;-0.09;100.00;98608.19;5071833;28;20175;-79
2021/11/28 06:26:01;;;;;;;1.50;1.40;;;;;;;-0.06;100.00;98613.75;5072682;28;20566;-78
2021/11/28 06:28:27;;;;;;;3.13;0.73;;;;;;;-0.02;100.00;98614.78;5072929;28;20181;-79
2021/11/28 06:30:52;;;;;;;2.37;1.63;;;;;;;0.02;100.00;98606.19;5071652;28;20178;-79
2021/11/28 06:33:17;;;;;;;1.93;1.23;;;;;;;0.03;100.00;98613.94;5072873;28;20213;-78
2021/11/28 06:35:43;;;;;;;2.17;1.83;;;;;;;0.06;100.00;98609.88;5072740;28;20185;-79
2021/11/28 06:38:08;;;;;;;4.63;3.10;;;;;;;0.11;100.00;98607.13;5072774;28;20178;-79
2021/11/28 06:40:34;;;;;;;2.47;2.27;;;;;;;0.16;100.00;98607.88;5072600;28;20174;-78
2021/11/28 06:42:59;;;;;;;0.70;0.70;;;;;;;0.18;100.00;98610.25;5072499;28;20181;-78
2021/11/28 06:45:25;;;;;;;2.23;2.00;;;;;;;0.20;100.00;98608.09;5072536;28;20628;-78
2021/11/28 06:47:50;;;;;;;0.33;0.33;;;;;;;0.15;100.00;98610.84;5072624;28;20175;-78
2021/11/28 06:50:17;;;;;;;0.20;0.20;;;;;;;0.13;100.00;98615.69;5072596;28;20221;-78
2021/11/28 06:52:43;;;;;;;7.60;1.10;;;;;;;0.11;100.00;98615.97;5071090;28;20195;-78
2021/11/28 06:55:08;;;;;;;0.67;0.67;;;;;;;0.08;100.00;98618.44;5072428;28;20772;-78
2021/11/28 06:57:33;;;;;;;1.30;1.30;;;;;;;0.11;100.00;98629.41;5072317;28;20232;-78
2021/11/28 06:59:59;;;;;;;1.70;1.60;;;;;;;0.14;100.00;98630.69;5072297;28;20171;-78
2021/11/28 07:02:24;;;;;;;8.60;1.03;;;;;;;0.16;100.00;98637.41;5072326;28;20178;-78
2021/11/28 07:04:49;;;;;;;0.80;0.33;;;;;;;0.19;100.00;98636.03;5072272;28;20186;-79
2021/11/28 07:07:15;;;;;;;1.40;1.30;;;;;;;0.21;100.00;98647.28;5072118;28;20170;-79
2021/11/28 07:09:40;;;;;;;1.07;1.07;;;;;;;0.22;100.00;98635.44;5071941;28;20607;-78
2021/11/28 07:12:06;;;;;;;0.57;0.57;;;;;;;0.23;100.00;98643.22;5072058;28;20301;-78
2021/11/28 07:14:31;;;;;;;0.90;0.90;;;;;;;0.25;100.00;98648.28;5071890;28;20185;-78
2021/11/28 07:16:57;;;;;;;0.60;0.60;;;;;;;0.27;100.00;98652.28;5071945;28;20532;-78
2021/11/28 07:19:23;;;;;;;0.80;0.73;;;;;;;0.26;100.00;98653.38;5070802;28;20618;-78
2021/11/28 07:21:48;;;;;;;1.70;1.60;;;;;;;0.29;100.00;98660.06;5071640;28;20221;-78
2021/11/28 07:24:14;;;;;;;0.27;0.27;;;;;;;0.33;100.00;98665.66;5071947;28;20622;-78
2021/11/28 07:26:39;;;;;;;1.50;1.40;;;;;;;0.35;100.00;98664.28;5071734;28;20206;-78
2021/11/28 07:29:05;;;;;;;2.30;2.10;;;;;;;0.40;100.00;98668.78;5070286;28;20179;-78
2021/11/28 07:31:30;;;;;;;0.43;0.43;;;;;;;0.43;100.00;98670.88;5071482;28;20237;-79
2021/11/28 07:33:55;;;;;;;2.70;2.50;;;;;;;0.44;100.00;98673.31;5071313;28;20214;-78
2021/11/28 07:36:21;;;;;;;2.00;1.67;;;;;;;0.48;100.00;98666.25;5071255;28;20189;-79
2021/11/28 07:38:46;;;;;;;3.67;3.37;;;;;;;0.52;100.00;98675.34;5071478;28;20170;-78
2021/11/28 07:41:11;;;;;;;0.90;0.90;;;;;;;0.54;100.00;98664.28;5071593;28;20547;-78
2021/11/28 07:43:37;;;;;;;1.33;1.00;;;;;;;0.53;100.00;98670.75;5071392;28;20253;-79
2021/11/28 07:46:03;;;;;;;0.50;0.40;;;;;;;0.55;100.00;98663.22;5071393;28;20235;-78
2021/11/28 07:48:28;;;;;;;0.97;0.97;;;;;;;0.59;100.00;98673.09;5071389;28;20182;-78
2021/11/28 07:50:54;;;;;;;2.40;1.73;;;;;;;0.62;100.00;98668.25;5071234;28;20697;-79
2021/11/28 07:53:19;;;;;;;4.40;2.33;;;;;;;0.66;100.00;98663.88;5071023;28;20202;-78
2021/11/28 07:55:45;;;;;;;2.97;2.83;;;;;;;0.66;100.00;98647.75;5071230;28;20201;-78
2021/11/28 07:58:10;;;;;;;0.50;0.50;;;;;;;0.68;100.00;98653.63;5071096;28;20171;-77
2021/11/28 08:00:36;;;;;;;1.13;1.13;;;;;;;0.73;100.00;98661.63;5070975;28;20223;-78
2021/11/28 08:03:02;;;;;;;0.27;0.27;;;;;;;0.77;100.00;98663.44;5071272;28;20212;-78
2021/11/28 08:05:27;;;;;;;1.50;1.40;;;;;;;0.84;100.00;98657.69;5071043;28;20537;-78
2021/11/28 08:07:54;;;;;;;0.80;0.80;;;;;;;0.86;100.00;98668.94;5071034;28;20419;-78
2021/11/28 08:10:19;;;;;;;1.13;1.03;;;;;;;0.91;100.00;98660.81;5070917;28;20181;-78
2021/11/28 08:12:46;;;;;;;1.10;1.03;;;;;;;1.00;100.00;98653.69;5070948;28;20575;-78
2021/11/28 08:15:16;;;;;;;1.20;1.10;;;;;;;1.07;100.00;98666.78;5071037;28;20428;-78
2021/11/28 08:17:42;;;;;;;1.97;1.87;;;;;;;1.10;100.00;98666.19;5070705;28;20189;-78
2021/11/28 08:20:09;;;;;;;1.57;1.33;;;;;;;1.12;100.00;98672.84;5070795;28;20427;-78
2021/11/28 08:22:36;;;;;;;0.40;0.40;;;;;;;1.15;100.00;98677.66;5070874;28;20421;-78
2021/11/28 08:25:02;;;;;;;2.73;1.40;;;;;;;1.19;100.00;98678.69;5071211;28;20470;-78
2021/11/28 08:27:27;;;;;;;1.20;1.13;;;;;;;1.26;100.00;98672.13;5069774;28;20939;-78
2021/11/28 08:29:53;;;;;;;18.13;1.07;;;;;;;1.28;100.00;98680.69;5069884;28;20420;-78
2021/11/28 08:32:19;;;;;;;1.17;1.17;;;;;;;1.33;100.00;98683.31;5070052;28;20199;-78
2021/11/28 08:34:44;;;;;;;3.40;2.00;;;;;;;1.34;100.00;98688.41;5070561;28;20869;-78
2021/11/28 08:37:09;;;;;;;0.87;0.87;;;;;;;1.28;100.00;98683.38;5070999;28;20175;-78
2021/11/28 08:39:35;;;;;;;0.40;0.40;;;;;;;1.27;100.00;98681.78;5070551;28;20220;-79
2021/11/28 08:42:03;;;;;;;2.67;2.47;;;;;;;1.30;100.00;98687.38;5070529;28;20201;-78
2021/11/28 08:44:29;;;;;;;0.77;0.63;;;;;;;1.28;100.00;98692.25;5070923;28;20175;-78
2021/11/28 08:46:54;;;;;;;1.73;1.63;;;;;;;1.28;100.00;98683.38;5069560;28;20438;-78
2021/11/28 08:49:20;;;;;;;3.00;2.33;;;;;;;1.29;100.00;98682.28;5070509;28;20257;-78
2021/11/28 08:51:45;;;;;;;9.53;1.40;;;;;;;1.29;100.00;98695.72;5070110;28;20183;-78
2021/11/28 08:54:13;;;;;;;1.73;1.63;;;;;;;1.23;100.00;98689.63;5070779;28;20181;-78
2021/11/28 08:56:40;;;;;;;0.23;0.23;;;;;;;1.25;100.00;98698.22;5070007;28;20236;-78
2021/11/28 08:59:06;;;;;;;1.77;1.73;;;;;;;1.25;100.00;98692.03;5070554;28;20179;-78
2021/11/28 09:01:31;;;;;;;2.17;2.03;;;;;;;1.22;100.00;98698.00;5070516;28;20968;-78
2021/11/28 09:03:57;;;;;;;5.10;1.50;;;;;;;1.26;100.00;98696.31;5070650;28;20182;-78
2021/11/28 09:06:23;;;;;;;1.07;1.00;;;;;;;1.28;100.00;98691.44;5070775;28;20180;-78
2021/11/28 09:08:48;;;;;;;0.50;0.50;;;;;;;1.32;100.00;98700.53;5080116;28;20433;-78
2021/11/28 09:11:15;;;;;;;1.07;1.07;;;;;;;1.31;100.00;98699.75;5074796;28;20190;-78
2021/11/28 09:13:40;;;;;;;0.20;0.20;;;;;;;1.33;100.00;98699.44;5071571;28;20194;-78
2021/11/28 09:16:10;;;;;;;1.83;1.73;;;;;;;1.35;100.00;98697.25;5071071;28;20457;-77
2021/11/28 09:18:43;;;;;;;0.87;0.87;;;;;;;1.42;100.00;98694.97;5069976;28;20181;-78
2021/11/28 09:21:11;;;;;;;11.63;2.23;;;;;;;1.49;100.00;98700.78;5070570;28;20424;-78
2021/11/28 09:26:20;;;;;;;1.67;1.33;;;;;;;1.53;100.00;98703.69;5070238;28;20420;-78
2021/11/28 09:28:46;;;;;;;1.20;1.10;;;;;;;1.55;100.00;98699.59;5070251;28;20416;-78
2021/11/28 09:31:11;;;;;;;0.47;0.47;;;;;;;1.60;100.00;98702.22;5070152;28;20170;-78
2021/11/28 09:33:38;;;;;;;0.37;0.37;;;;;;;1.68;100.00;98706.13;5070099;28;20214;-78
2021/11/28 09:36:04;;;;;;;2.70;2.30;;;;;;;1.70;100.00;98710.09;5070162;28;20185;-79
2021/11/28 09:38:31;;;;;;;5.37;1.03;;;;;;;1.74;100.00;98707.66;5070317;28;20420;-79
2021/11/28 09:40:59;;;;;;;0.73;0.73;;;;;;;1.73;100.00;98706.03;5070127;28;20425;-82
2021/11/28 09:43:27;;;;;;;0.87;0.87;;;;;;;1.75;100.00;98707.34;5070038;28;20904;-76
2021/11/28 09:45:55;;;;;;;0.53;0.53;;;;;;;1.78;100.00;98701.38;5070031;28;20428;-79
2021/11/28 09:48:24;;;;;;;2.27;2.10;;;;;;;1.78;100.00;98704.06;5070182;28;20420;-77
2021/11/28 09:50:50;;;;;;;6.10;3.47;;;;;;;1.81;100.00;98702.66;5070059;28;20977;-77
2021/11/28 09:53:17;;;;;;;0.53;0.43;;;;;;;1.81;100.00;98701.88;5070253;28;20464;-76
2021/11/28 09:55:43;;;;;;;0.30;0.30;;;;;;;1.82;100.00;98700.78;5069800;28;20957;-77
2021/11/28 09:58:09;;;;;;;2.13;2.03;;;;;;;1.84;100.00;98698.56;5070676;28;20413;-79
2021/11/28 10:00:35;;;;;;;3.97;3.60;;;;;;;1.90;100.00;98700.09;5073623;28;20175;-76
2021/11/28 10:03:01;;;;;;;6.30;3.63;;;;;;;1.97;100.00;98695.91;5073575;28;20201;-83
2021/11/28 10:05:26;;;;;;;4.57;3.20;;;;;;;2.06;100.00;98704.09;5071989;28;20421;-78
2021/11/28 10:07:51;;;;;;;4.07;3.63;;;;;;;2.15;100.00;98707.69;5073434;28;20202;-78
2021/11/28 10:10:20;;;;;;;1.83;1.73;;;;;;;2.14;100.00;98703.38;5073082;28;20295;-78
2021/11/28 10:12:50;;;;;;;4.10;2.50;;;;;;;2.15;100.00;98704.97;5073267;28;20289;-78
2021/11/28 10:15:30;;;;;;;1.27;1.23;;;;;;;2.16;100.00;98706.56;5073360;28;20166;-78
2021/11/28 10:17:58;;;;;;;2.43;2.03;;;;;;;2.20;100.00;98702.22;5073330;28;20281;-77
2021/11/28 10:20:26;;;;;;;2.60;1.97;;;;;;;2.21;100.00;98697.63;5073184;28;20614;-78
2021/11/28 10:22:54;;;;;;;2.80;2.60;;;;;;;2.23;100.00;98700.81;5073010;28;20269;-78
2021/11/28 10:25:25;;;;;;;2.87;2.60;;;;;;;2.27;100.00;98699.91;5072966;28;20240;-78
2021/11/28 10:27:53;;;;;;;3.10;2.90;;;;;;;2.24;100.00;98703.19;5053071;28;20179;-78
2021/11/28 10:30:28;;;;;;;3.17;2.67;;;;;;;2.24;100.00;98697.81;5053107;28;20420;-78
2021/11/28 10:32:55;;;;;;;4.50;3.13;;;;;;;2.27;100.00;98713.38;5052468;28;20202;-77
2021/11/28 10:35:21;;;;;;;2.80;2.60;;;;;;;2.24;100.00;98695.13;5052711;28;20175;-78
2021/11/28 10:37:52;;;;;;;2.77;2.47;;;;;;;2.27;100.00;98701.81;5052842;28;20410;-79
2021/11/28 10:40:24;;;;;;;3.90;3.43;;;;;;;2.29;100.00;98707.69;5052891;28;20277;-77
2021/11/28 10:43:06;;;;;;;5.10;1.53;;;;;;;2.27;100.00;98704.50;5052861;28;20167;-78
2021/11/28 10:45:47;;;;;;;3.00;2.30;;;;;;;2.29;100.00;98696.91;5062435;28;20275;-78
2021/11/28 10:48:12;;;;;;;1.53;1.43;;;;;;;2.29;100.00;98697.69;5072515;28;20185;-78
2021/11/28 10:50:38;;;;;;;3.37;3.07;;;;;;;2.31;100.00;98703.59;5071219;28;20175;-78
2021/11/28 10:53:15;;;;;;;1.57;1.30;;;;;;;2.29;100.00;98689.63;5072532;28;20232;-78
2021/11/28 10:55:58;;;;;;;1.07;0.97;;;;;;;2.32;100.00;98704.41;5072333;28;20618;-78
2021/11/28 10:58:31;;;;;;;1.40;1.30;;;;;;;2.37;100.00;98697.00;5072422;28;20500;-78
2021/11/28 11:00:57;;;;;;;2.10;2.00;;;;;;;2.46;100.00;98701.69;5065687;28;20266;-78
2021/11/28 11:03:27;;;;;;;6.53;3.87;;;;;;;2.49;100.00;98709.19;5069261;28;20531;-77
2021/11/28 11:06:11;;;;;;;4.83;2.47;;;;;;;2.58;100.00;98704.66;5071906;28;20266;-77
2021/11/28 11:08:39;;;;;;;8.53;1.30;;;;;;;2.57;100.00;98698.47;5072202;28;20638;-78
2021/11/28 11:11:11;;;;;;;2.70;2.50;;;;;;;2.59;100.00;98707.06;5071507;28;20182;-78
2021/11/28 11:14:00;;;;;;;5.50;5.00;;;;;;;2.55;100.00;98714.16;5071748;28;20488;-78
2021/11/28 11:16:39;;;;;;;3.83;3.17;;;;;;;2.57;100.00;98703.06;5071396;28;20416;-78
2021/11/28 11:19:25;;;;;;;2.10;1.87;;;;;;;2.60;100.00;98703.28;5071521;28;20477;-78
2021/11/28 11:22:24;;;;;;;0.83;0.83;;;;;;;2.63;100.00;98696.50;5071542;28;20216;-78
2021/11/28 11:25:17;;;;;;;9.33;2.57;;;;;;;2.74;100.00;98708.63;5071404;28;20474;-78
2021/11/28 11:27:48;;;;;;;1.40;1.30;;;;;;;2.78;100.00;98704.25;5066816;28;20285;-78
2021/11/28 11:30:18;;;;;;;1.80;1.63;;;;;;;2.82;100.00;98704.44;5071419;28;20189;-78
2021/11/28 11:32:49;;;;;;;0.93;0.93;;;;;;;2.85;100.00;98701.13;5070909;28;20874;-79
2021/11/28 11:35:16;;;;;;;1.97;1.87;;;;;;;2.90;100.00;98699.16;5071096;28;20197;-78
2021/11/28 11:37:42;;;;;;;2.60;2.33;;;;;;;2.94;100.00;98708.22;5071150;28;20655;-78